SAZR/RSA METAR and TAF weather

Enter ICAO airport designator
Station Type Date Time Source
SAZR METAR 2022/08/06 22:25 UTC NOAA

SAZR 062225Z 14011KT 5000 RA FEW005 BKN030 OVC100 07/06 Q1021


Station Type Date Time Source
SAZR Decoded METAR 2022/08/06 22:25 UTC NOAA

Santa Rosa Aerodrome, Argentina (SAZR) 36-34S 064-16W 191M
Aug 06, 2022 - 06:25 PM EDT / 2022.08.06 2225 UTC
Wind: from the SE (140 degrees) at 13 MPH (11 KT):0
Visibility: 3 mile(s):0
Sky conditions: overcast
Weather: rain
Temperature: 44 F (7 C)
Dew Point: 42 F (6 C)
Relative Humidity: 93%
Pressure (altimeter): 30.15 in. Hg (1021 hPa)
ob: SAZR 062225Z 14011KT 5000 RA FEW005 BKN030 OVC100 07/06 Q1021
cycle: 22

Station Type Date Time Source
SAZR TAF 2022/07/24 00:36 UTC NOAA

TAF
AMD SAZR 240000Z 2400/2424 11006KT 5000 BR NSC TX16/2418Z TN09/2410Z PROB30
TEMPO 2405/2411 0900 FG OVC010
BECMG 2411/2413 1000 BR OVC020
BECMG 2415/2417 5000 DZ OVC015

Example: see airport list